WAT133 EDDF-LKPR
Flight info
| Callsign | WAT133 |
|---|---|
| Flight time | 1h 15m |
| Altitude | 13000 |
| Route | SULUS7S/18 SULUS Z650 TONSU Z35 ODOMO DCT LOMKI |
| Aircraft | C408/M-SDFGRY/S |
Departure
| Time | 2026-05-06 19:06 |
|---|---|
| Airport | Frankfurt Main Airport (EDDF) |
Arrival
| Time | 2026-05-06 20:21 |
|---|---|
| Airport | Václav Havel Airport Prague (LKPR) |
| Time | Latitude | Longitude | Altitude | Speed | Heading |
|---|---|---|---|---|---|
| 2026-05-06 18:25 | 50.03792 | 8.53359 | 357 ft | 0 kts | 339° |
| 2026-05-06 19:00 | 50.03796 | 8.53335 | 362 ft | 2 kts | 234° |
| 2026-05-06 19:01 | 50.03760 | 8.53358 | 357 ft | 0 kts | 133° |
| 2026-05-06 19:01 | 50.03734 | 8.53398 | 357 ft | 13 kts | 149° |
| 2026-05-06 19:01 | 50.03663 | 8.53325 | 357 ft | 19 kts | 248° |
| 2026-05-06 19:01 | 50.03616 | 8.53094 | 360 ft | 18 kts | 252° |
| 2026-05-06 19:02 | 50.03591 | 8.52997 | 357 ft | 11 kts | 247° |
| 2026-05-06 19:02 | 50.03550 | 8.52822 | 357 ft | 19 kts | 250° |
| 2026-05-06 19:02 | 50.03526 | 8.52722 | 360 ft | 11 kts | 249° |
| 2026-05-06 19:02 | 50.03506 | 8.52521 | 358 ft | 18 kts | 269° |
| 2026-05-06 19:03 | 50.03467 | 8.52330 | 360 ft | 8 kts | 231° |
| 2026-05-06 19:03 | 50.03404 | 8.52314 | 361 ft | 3 kts | 131° |
| 2026-05-06 19:03 | 50.03398 | 8.52397 | 358 ft | 17 kts | 90° |
| 2026-05-06 19:03 | 50.03398 | 8.52454 | 359 ft | 0 kts | 89° |
| 2026-05-06 19:05 | 50.03390 | 8.52569 | 366 ft | 10 kts | 126° |
| 2026-05-06 19:05 | 50.03260 | 8.52595 | 362 ft | 41 kts | 180° |
| 2026-05-06 19:05 | 50.02738 | 8.52598 | 358 ft | 106 kts | 180° |
| 2026-05-06 19:05 | 50.01994 | 8.52621 | 631 ft | 122 kts | 182° |
| 2026-05-06 19:06 | 50.01165 | 8.52638 | 949 ft | 131 kts | 182° |
| 2026-05-06 19:06 | 50.00341 | 8.52626 | 1444 ft | 127 kts | 185° |
| 2026-05-06 19:06 | 49.99473 | 8.52593 | 1788 ft | 136 kts | 182° |
| 2026-05-06 19:06 | 49.98555 | 8.52619 | 2110 ft | 143 kts | 183° |
| 2026-05-06 19:07 | 49.97539 | 8.52653 | 2435 ft | 150 kts | 177° |
| 2026-05-06 19:07 | 49.96571 | 8.53337 | 2746 ft | 158 kts | 143° |
| 2026-05-06 19:07 | 49.95911 | 8.54703 | 3061 ft | 160 kts | 119° |
| 2026-05-06 19:07 | 49.95376 | 8.56200 | 3366 ft | 161 kts | 121° |
| 2026-05-06 19:08 | 49.94826 | 8.57722 | 3669 ft | 162 kts | 121° |
| 2026-05-06 19:08 | 49.94271 | 8.59283 | 3827 ft | 171 kts | 118° |
| 2026-05-06 19:08 | 49.94048 | 8.61117 | 3807 ft | 179 kts | 93° |
| 2026-05-06 19:08 | 49.93981 | 8.63064 | 3820 ft | 182 kts | 94° |
| 2026-05-06 19:09 | 49.93903 | 8.65015 | 3819 ft | 181 kts | 94° |
| 2026-05-06 19:09 | 49.93826 | 8.66960 | 3823 ft | 180 kts | 94° |
| 2026-05-06 19:09 | 49.93617 | 8.68798 | 4048 ft | 168 kts | 115° |
| 2026-05-06 19:09 | 49.93010 | 8.70259 | 4346 ft | 157 kts | 138° |
| 2026-05-06 19:10 | 49.92226 | 8.71213 | 4671 ft | 149 kts | 150° |
| 2026-05-06 19:10 | 49.91493 | 8.72033 | 4960 ft | 146 kts | 149° |
| 2026-05-06 19:10 | 49.90669 | 8.72946 | 5299 ft | 144 kts | 150° |
| 2026-05-06 19:10 | 49.89857 | 8.73845 | 5646 ft | 143 kts | 150° |
| 2026-05-06 19:11 | 49.89054 | 8.74732 | 5998 ft | 141 kts | 150° |
| 2026-05-06 19:11 | 49.88337 | 8.75774 | 6329 ft | 145 kts | 127° |
| 2026-05-06 19:11 | 49.87855 | 8.77147 | 6664 ft | 144 kts | 125° |
| 2026-05-06 19:11 | 49.87368 | 8.78475 | 6997 ft | 144 kts | 124° |
| 2026-05-06 19:12 | 49.86879 | 8.79826 | 7339 ft | 143 kts | 124° |
| 2026-05-06 19:12 | 49.86393 | 8.81173 | 7685 ft | 143 kts | 124° |
| 2026-05-06 19:12 | 49.85907 | 8.82514 | 8033 ft | 142 kts | 124° |
| 2026-05-06 19:12 | 49.85424 | 8.83852 | 8380 ft | 142 kts | 124° |
| 2026-05-06 19:13 | 49.84946 | 8.85170 | 8730 ft | 142 kts | 123° |
| 2026-05-06 19:13 | 49.84462 | 8.86505 | 9089 ft | 142 kts | 123° |
| 2026-05-06 19:13 | 49.83978 | 8.87841 | 9454 ft | 142 kts | 124° |
| 2026-05-06 19:13 | 49.83495 | 8.89172 | 9808 ft | 142 kts | 123° |
| 2026-05-06 19:14 | 49.83014 | 8.90500 | 10147 ft | 141 kts | 123° |
| 2026-05-06 19:14 | 49.82533 | 8.91823 | 10483 ft | 140 kts | 123° |
| 2026-05-06 19:14 | 49.82055 | 8.93139 | 10822 ft | 140 kts | 123° |
| 2026-05-06 19:14 | 49.81581 | 8.94443 | 11165 ft | 139 kts | 121° |
| 2026-05-06 19:15 | 49.81110 | 8.95733 | 11517 ft | 137 kts | 121° |
| 2026-05-06 19:15 | 49.80647 | 8.97017 | 11867 ft | 136 kts | 123° |
| 2026-05-06 19:15 | 49.80184 | 8.98285 | 12220 ft | 134 kts | 123° |
| 2026-05-06 19:15 | 49.79727 | 8.99542 | 12577 ft | 133 kts | 123° |
| 2026-05-06 19:16 | 49.79267 | 9.00799 | 12838 ft | 142 kts | 123° |
| 2026-05-06 19:16 | 49.78740 | 9.02230 | 12852 ft | 163 kts | 122° |
| 2026-05-06 19:16 | 49.78154 | 9.03831 | 12849 ft | 177 kts | 122° |
| 2026-05-06 19:16 | 49.77536 | 9.05526 | 12852 ft | 184 kts | 122° |
| 2026-05-06 19:17 | 49.76898 | 9.07275 | 12832 ft | 188 kts | 121° |
| 2026-05-06 19:17 | 49.76267 | 9.09050 | 12829 ft | 190 kts | 117° |
| 2026-05-06 19:17 | 49.75921 | 9.11022 | 12828 ft | 191 kts | 105° |
| 2026-05-06 19:17 | 49.75601 | 9.13019 | 12827 ft | 192 kts | 106° |
| 2026-05-06 19:18 | 49.75276 | 9.15025 | 12832 ft | 192 kts | 107° |
| 2026-05-06 19:18 | 49.74956 | 9.17026 | 12830 ft | 192 kts | 105° |
| 2026-05-06 19:18 | 49.74635 | 9.19037 | 12830 ft | 193 kts | 105° |
| 2026-05-06 19:18 | 49.74311 | 9.21049 | 12830 ft | 192 kts | 105° |
| 2026-05-06 19:19 | 49.73985 | 9.23058 | 12833 ft | 192 kts | 106° |
| 2026-05-06 19:19 | 49.73660 | 9.25066 | 12825 ft | 193 kts | 106° |
| 2026-05-06 19:19 | 49.73333 | 9.27082 | 12826 ft | 193 kts | 106° |
| 2026-05-06 19:19 | 49.73006 | 9.29097 | 12826 ft | 193 kts | 106° |
| 2026-05-06 19:20 | 49.72680 | 9.31107 | 12821 ft | 192 kts | 106° |
| 2026-05-06 19:20 | 49.72353 | 9.33114 | 12824 ft | 193 kts | 107° |
| 2026-05-06 19:20 | 49.72027 | 9.35118 | 12822 ft | 193 kts | 107° |
| 2026-05-06 19:20 | 49.71699 | 9.37128 | 12821 ft | 193 kts | 107° |
| 2026-05-06 19:21 | 49.71361 | 9.39191 | 12829 ft | 203 kts | 107° |
| 2026-05-06 19:21 | 49.71009 | 9.41340 | 12825 ft | 208 kts | 106° |
| 2026-05-06 19:21 | 49.70653 | 9.43519 | 12823 ft | 210 kts | 106° |
| 2026-05-06 19:21 | 49.70293 | 9.45718 | 12821 ft | 212 kts | 106° |
| 2026-05-06 19:22 | 49.69930 | 9.47928 | 12819 ft | 213 kts | 107° |
| 2026-05-06 19:22 | 49.69566 | 9.50142 | 12817 ft | 212 kts | 106° |
| 2026-05-06 19:22 | 49.69203 | 9.52350 | 12821 ft | 212 kts | 106° |
| 2026-05-06 19:22 | 49.68840 | 9.54554 | 12821 ft | 212 kts | 106° |
| 2026-05-06 19:23 | 49.68476 | 9.56759 | 12820 ft | 212 kts | 106° |
| 2026-05-06 19:23 | 49.68117 | 9.58933 | 12815 ft | 212 kts | 106° |
| 2026-05-06 19:23 | 49.67752 | 9.61137 | 12817 ft | 212 kts | 106° |
| 2026-05-06 19:23 | 49.67388 | 9.63338 | 12818 ft | 212 kts | 106° |
| 2026-05-06 19:24 | 49.67030 | 9.65546 | 12817 ft | 211 kts | 103° |
| 2026-05-06 19:24 | 49.67025 | 9.67814 | 12807 ft | 214 kts | 82° |
| 2026-05-06 19:24 | 49.67402 | 9.70035 | 12809 ft | 214 kts | 75° |
| 2026-05-06 19:24 | 49.67795 | 9.72227 | 12810 ft | 214 kts | 76° |
| 2026-05-06 19:25 | 49.68189 | 9.74452 | 12813 ft | 215 kts | 76° |
| 2026-05-06 19:25 | 49.68581 | 9.76673 | 12813 ft | 215 kts | 76° |
| 2026-05-06 19:25 | 49.68974 | 9.78898 | 12812 ft | 215 kts | 76° |
| 2026-05-06 19:25 | 49.69368 | 9.81129 | 12811 ft | 215 kts | 76° |
| 2026-05-06 19:26 | 49.69760 | 9.83353 | 12811 ft | 215 kts | 76° |
| 2026-05-06 19:26 | 49.70152 | 9.85581 | 12811 ft | 215 kts | 76° |
| 2026-05-06 19:26 | 49.70543 | 9.87807 | 12813 ft | 215 kts | 76° |
| 2026-05-06 19:26 | 49.70934 | 9.90034 | 12812 ft | 215 kts | 76° |
| 2026-05-06 19:27 | 49.71325 | 9.92262 | 12810 ft | 215 kts | 76° |
| 2026-05-06 19:27 | 49.71750 | 9.94472 | 12805 ft | 215 kts | 68° |
| 2026-05-06 19:27 | 49.72550 | 9.96419 | 12799 ft | 215 kts | 54° |
| 2026-05-06 19:27 | 49.73427 | 9.98299 | 12799 ft | 216 kts | 55° |
| 2026-05-06 19:28 | 49.74303 | 10.00194 | 12803 ft | 217 kts | 55° |
| 2026-05-06 19:28 | 49.75174 | 10.02077 | 12802 ft | 218 kts | 55° |
| 2026-05-06 19:28 | 49.76056 | 10.03981 | 12805 ft | 218 kts | 54° |
| 2026-05-06 19:28 | 49.76939 | 10.05890 | 12804 ft | 218 kts | 54° |
| 2026-05-06 19:29 | 49.77820 | 10.07798 | 12806 ft | 218 kts | 54° |
| 2026-05-06 19:29 | 49.78700 | 10.09704 | 12806 ft | 218 kts | 54° |
| 2026-05-06 19:29 | 49.79582 | 10.11615 | 12807 ft | 218 kts | 54° |
| 2026-05-06 19:29 | 49.80461 | 10.13520 | 12807 ft | 218 kts | 54° |
| 2026-05-06 19:30 | 49.81342 | 10.15434 | 12805 ft | 218 kts | 54° |
| 2026-05-06 19:30 | 49.82223 | 10.17346 | 12806 ft | 218 kts | 55° |
| 2026-05-06 19:30 | 49.83103 | 10.19259 | 12806 ft | 218 kts | 55° |
| 2026-05-06 19:30 | 49.83984 | 10.21173 | 12806 ft | 218 kts | 55° |
| 2026-05-06 19:31 | 49.84863 | 10.23087 | 12809 ft | 218 kts | 55° |
| 2026-05-06 19:31 | 49.85742 | 10.25001 | 12810 ft | 218 kts | 55° |
| 2026-05-06 19:31 | 49.87498 | 10.28831 | 12807 ft | 218 kts | 55° |
| 2026-05-06 19:32 | 49.88376 | 10.30746 | 12807 ft | 218 kts | 55° |
| 2026-05-06 19:32 | 49.89253 | 10.32663 | 12807 ft | 218 kts | 55° |
| 2026-05-06 19:32 | 49.90128 | 10.34575 | 12807 ft | 218 kts | 55° |
| 2026-05-06 19:32 | 49.91004 | 10.36492 | 12808 ft | 218 kts | 55° |
| 2026-05-06 19:33 | 49.91881 | 10.38410 | 12809 ft | 218 kts | 55° |
| 2026-05-06 19:33 | 49.92757 | 10.40330 | 12810 ft | 218 kts | 55° |
| 2026-05-06 19:33 | 49.93633 | 10.42249 | 12810 ft | 218 kts | 55° |
| 2026-05-06 19:33 | 49.94500 | 10.44173 | 12801 ft | 217 kts | 59° |
| 2026-05-06 19:34 | 49.94875 | 10.46365 | 12793 ft | 214 kts | 94° |
| 2026-05-06 19:34 | 49.94691 | 10.48641 | 12796 ft | 212 kts | 98° |
| 2026-05-06 19:34 | 49.94603 | 10.50935 | 12794 ft | 214 kts | 93° |
| 2026-05-06 19:34 | 49.94613 | 10.53247 | 12797 ft | 215 kts | 91° |
| 2026-05-06 19:35 | 49.94636 | 10.55568 | 12796 ft | 215 kts | 92° |
| 2026-05-06 19:35 | 49.94644 | 10.57895 | 12798 ft | 215 kts | 92° |
| 2026-05-06 19:35 | 49.94648 | 10.60220 | 12799 ft | 216 kts | 92° |
| 2026-05-06 19:35 | 49.94652 | 10.62554 | 12794 ft | 216 kts | 92° |
| 2026-05-06 19:36 | 49.94654 | 10.64099 | 12798 ft | 216 kts | 92° |
| 2026-05-06 19:36 | 49.94659 | 10.66430 | 12799 ft | 216 kts | 92° |
| 2026-05-06 19:36 | 49.94663 | 10.68756 | 12800 ft | 216 kts | 92° |
| 2026-05-06 19:36 | 49.94666 | 10.71086 | 12799 ft | 216 kts | 92° |
| 2026-05-06 19:37 | 49.94670 | 10.74173 | 12800 ft | 216 kts | 92° |
| 2026-05-06 19:37 | 49.94672 | 10.76505 | 12798 ft | 216 kts | 92° |
| 2026-05-06 19:37 | 49.94673 | 10.78080 | 12798 ft | 216 kts | 92° |
| 2026-05-06 19:37 | 49.94674 | 10.80416 | 12795 ft | 216 kts | 92° |
| 2026-05-06 19:38 | 49.94675 | 10.82746 | 12798 ft | 216 kts | 92° |
| 2026-05-06 19:38 | 49.94676 | 10.85046 | 12798 ft | 216 kts | 92° |
| 2026-05-06 19:38 | 49.94675 | 10.87378 | 12796 ft | 216 kts | 92° |
| 2026-05-06 19:38 | 49.94675 | 10.89707 | 12796 ft | 216 kts | 92° |
| 2026-05-06 19:39 | 49.94674 | 10.92041 | 12797 ft | 216 kts | 92° |
| 2026-05-06 19:39 | 49.94672 | 10.94374 | 12798 ft | 216 kts | 92° |
| 2026-05-06 19:39 | 49.94671 | 10.96705 | 12797 ft | 216 kts | 92° |
| 2026-05-06 19:39 | 49.94668 | 10.99036 | 12788 ft | 216 kts | 92° |
| 2026-05-06 19:40 | 49.94665 | 11.01339 | 12785 ft | 216 kts | 92° |
| 2026-05-06 19:40 | 49.94662 | 11.03701 | 12785 ft | 216 kts | 92° |
| 2026-05-06 19:40 | 49.94658 | 11.06031 | 12785 ft | 216 kts | 92° |
| 2026-05-06 19:40 | 49.94654 | 11.08360 | 12785 ft | 216 kts | 92° |
| 2026-05-06 19:41 | 49.94649 | 11.10663 | 12788 ft | 216 kts | 92° |
| 2026-05-06 19:41 | 49.94644 | 11.13021 | 12788 ft | 216 kts | 92° |
| 2026-05-06 19:41 | 49.94638 | 11.15318 | 12789 ft | 216 kts | 92° |
| 2026-05-06 19:41 | 49.94632 | 11.17655 | 12789 ft | 216 kts | 92° |
| 2026-05-06 19:42 | 49.94626 | 11.19993 | 12788 ft | 216 kts | 92° |
| 2026-05-06 19:42 | 49.94619 | 11.22327 | 12788 ft | 216 kts | 92° |
| 2026-05-06 19:42 | 49.94611 | 11.24658 | 12788 ft | 216 kts | 92° |
| 2026-05-06 19:42 | 49.94603 | 11.26994 | 12788 ft | 216 kts | 92° |
| 2026-05-06 19:43 | 49.94595 | 11.29323 | 12792 ft | 216 kts | 92° |
| 2026-05-06 19:43 | 49.94586 | 11.31658 | 12793 ft | 216 kts | 92° |
| 2026-05-06 19:43 | 49.94576 | 11.33988 | 12793 ft | 216 kts | 92° |
| 2026-05-06 19:43 | 49.94566 | 11.36319 | 12790 ft | 216 kts | 92° |
| 2026-05-06 19:44 | 49.94556 | 11.38647 | 12789 ft | 216 kts | 92° |
| 2026-05-06 19:44 | 49.94546 | 11.40979 | 12789 ft | 216 kts | 92° |
| 2026-05-06 19:44 | 49.94534 | 11.43313 | 12788 ft | 216 kts | 93° |
| 2026-05-06 19:44 | 49.94522 | 11.45648 | 12776 ft | 216 kts | 93° |
| 2026-05-06 19:45 | 49.94510 | 11.47952 | 12779 ft | 216 kts | 93° |
| 2026-05-06 19:45 | 49.94498 | 11.50287 | 12780 ft | 217 kts | 93° |
| 2026-05-06 19:45 | 49.94486 | 11.52652 | 12780 ft | 216 kts | 93° |
| 2026-05-06 19:45 | 49.94472 | 11.54960 | 12777 ft | 216 kts | 94° |
| 2026-05-06 19:46 | 49.94456 | 11.57297 | 12776 ft | 216 kts | 93° |
| 2026-05-06 19:46 | 49.94442 | 11.59634 | 12777 ft | 216 kts | 93° |
| 2026-05-06 19:46 | 49.94427 | 11.61972 | 12777 ft | 217 kts | 93° |
| 2026-05-06 19:46 | 49.94412 | 11.64311 | 12779 ft | 217 kts | 93° |
| 2026-05-06 19:47 | 49.94396 | 11.66654 | 12778 ft | 217 kts | 93° |
| 2026-05-06 19:47 | 49.94379 | 11.68999 | 12779 ft | 217 kts | 93° |
| 2026-05-06 19:47 | 49.94362 | 11.71340 | 12776 ft | 217 kts | 93° |
| 2026-05-06 19:47 | 49.94345 | 11.73683 | 12776 ft | 217 kts | 93° |
| 2026-05-06 19:48 | 49.94327 | 11.76029 | 12781 ft | 217 kts | 94° |
| 2026-05-06 19:48 | 49.94309 | 11.78372 | 12779 ft | 217 kts | 93° |
| 2026-05-06 19:48 | 49.94290 | 11.80715 | 12780 ft | 217 kts | 94° |
| 2026-05-06 19:48 | 49.94270 | 11.83058 | 12780 ft | 217 kts | 94° |
| 2026-05-06 19:49 | 49.94251 | 11.85372 | 12779 ft | 217 kts | 94° |
| 2026-05-06 19:49 | 49.94230 | 11.87746 | 12780 ft | 217 kts | 94° |
| 2026-05-06 19:49 | 49.94210 | 11.90050 | 12756 ft | 216 kts | 94° |
| 2026-05-06 19:49 | 49.94191 | 11.92393 | 12766 ft | 217 kts | 94° |
| 2026-05-06 19:50 | 49.94167 | 11.94732 | 12769 ft | 217 kts | 94° |
| 2026-05-06 19:50 | 49.94145 | 11.97071 | 12768 ft | 217 kts | 94° |
| 2026-05-06 19:50 | 49.94122 | 11.99421 | 12768 ft | 218 kts | 94° |
| 2026-05-06 19:50 | 49.94099 | 12.01772 | 12769 ft | 218 kts | 94° |
| 2026-05-06 19:51 | 49.94075 | 12.04121 | 12767 ft | 218 kts | 94° |
| 2026-05-06 19:51 | 49.94051 | 12.06467 | 12771 ft | 218 kts | 94° |
| 2026-05-06 19:51 | 49.94027 | 12.08814 | 12771 ft | 217 kts | 94° |
| 2026-05-06 19:51 | 49.94002 | 12.11159 | 12771 ft | 217 kts | 94° |
| 2026-05-06 19:52 | 49.93976 | 12.13507 | 12769 ft | 217 kts | 94° |
| 2026-05-06 19:52 | 49.93950 | 12.15854 | 12768 ft | 218 kts | 94° |
| 2026-05-06 19:52 | 49.93924 | 12.18204 | 12769 ft | 217 kts | 94° |
| 2026-05-06 19:52 | 49.93897 | 12.20552 | 12769 ft | 217 kts | 94° |
| 2026-05-06 19:53 | 49.93870 | 12.22896 | 12769 ft | 217 kts | 94° |
| 2026-05-06 19:53 | 49.93842 | 12.25242 | 12769 ft | 217 kts | 94° |
| 2026-05-06 19:53 | 49.93814 | 12.27584 | 12766 ft | 217 kts | 94° |
| 2026-05-06 19:53 | 49.93785 | 12.29929 | 12767 ft | 218 kts | 94° |
| 2026-05-06 19:54 | 49.93755 | 12.32282 | 12763 ft | 217 kts | 94° |
| 2026-05-06 19:54 | 49.93723 | 12.34628 | 12763 ft | 217 kts | 96° |
| 2026-05-06 19:54 | 49.93640 | 12.36959 | 12763 ft | 216 kts | 96° |
| 2026-05-06 19:54 | 49.93589 | 12.39290 | 12763 ft | 216 kts | 96° |
| 2026-05-06 19:55 | 49.93531 | 12.41624 | 12763 ft | 216 kts | 96° |
| 2026-05-06 19:55 | 49.93466 | 12.43931 | 12762 ft | 216 kts | 96° |
| 2026-05-06 19:55 | 49.93398 | 12.46288 | 12758 ft | 216 kts | 96° |
| 2026-05-06 19:55 | 49.93333 | 12.48588 | 12762 ft | 216 kts | 96° |
| 2026-05-06 19:56 | 49.93266 | 12.50915 | 12761 ft | 216 kts | 96° |
| 2026-05-06 19:56 | 49.93198 | 12.53280 | 12763 ft | 216 kts | 96° |
| 2026-05-06 19:56 | 49.93131 | 12.55606 | 12764 ft | 216 kts | 96° |
| 2026-05-06 19:56 | 49.93064 | 12.57905 | 12763 ft | 216 kts | 96° |
| 2026-05-06 19:57 | 49.92995 | 12.60235 | 12760 ft | 216 kts | 97° |
| 2026-05-06 19:57 | 49.92926 | 12.62563 | 12764 ft | 216 kts | 96° |
| 2026-05-06 19:57 | 49.92856 | 12.64889 | 12760 ft | 216 kts | 96° |
| 2026-05-06 19:57 | 49.92787 | 12.67214 | 12761 ft | 216 kts | 97° |
| 2026-05-06 19:58 | 49.92717 | 12.69538 | 12764 ft | 216 kts | 97° |
| 2026-05-06 19:58 | 49.92646 | 12.71863 | 12764 ft | 216 kts | 97° |
| 2026-05-06 19:58 | 49.92575 | 12.74185 | 12766 ft | 216 kts | 96° |
| 2026-05-06 19:58 | 49.92607 | 12.76509 | 12757 ft | 219 kts | 80° |
| 2026-05-06 19:59 | 49.93191 | 12.78698 | 12775 ft | 221 kts | 65° |
| 2026-05-06 19:59 | 49.93892 | 12.80821 | 12783 ft | 222 kts | 64° |
| 2026-05-06 19:59 | 49.94607 | 12.82955 | 12761 ft | 224 kts | 65° |
| 2026-05-06 19:59 | 49.95327 | 12.85093 | 12773 ft | 223 kts | 64° |
| 2026-05-06 20:00 | 49.96049 | 12.87227 | 12780 ft | 223 kts | 64° |
| 2026-05-06 20:00 | 49.96774 | 12.89364 | 12778 ft | 223 kts | 64° |
| 2026-05-06 20:00 | 49.97498 | 12.91497 | 12781 ft | 223 kts | 64° |
| 2026-05-06 20:00 | 49.98222 | 12.93631 | 12779 ft | 223 kts | 64° |
| 2026-05-06 20:01 | 49.98946 | 12.95761 | 12786 ft | 223 kts | 64° |
| 2026-05-06 20:01 | 49.99671 | 12.97897 | 12788 ft | 224 kts | 64° |
| 2026-05-06 20:01 | 50.00395 | 13.00036 | 12780 ft | 224 kts | 64° |
| 2026-05-06 20:01 | 50.01119 | 13.02172 | 12789 ft | 224 kts | 64° |
| 2026-05-06 20:02 | 50.01844 | 13.04318 | 12791 ft | 224 kts | 64° |
| 2026-05-06 20:02 | 50.02558 | 13.06429 | 12789 ft | 224 kts | 64° |
| 2026-05-06 20:02 | 50.03272 | 13.08544 | 12456 ft | 211 kts | 64° |
| 2026-05-06 20:02 | 50.03943 | 13.10521 | 12076 ft | 203 kts | 64° |
| 2026-05-06 20:03 | 50.04596 | 13.12448 | 11705 ft | 200 kts | 64° |
| 2026-05-06 20:03 | 50.05241 | 13.14358 | 11325 ft | 198 kts | 64° |
| 2026-05-06 20:03 | 50.05878 | 13.16252 | 10966 ft | 196 kts | 64° |
| 2026-05-06 20:03 | 50.06507 | 13.18127 | 10624 ft | 195 kts | 64° |
| 2026-05-06 20:04 | 50.07129 | 13.19987 | 10278 ft | 193 kts | 64° |
| 2026-05-06 20:04 | 50.07743 | 13.21841 | 9932 ft | 192 kts | 64° |
| 2026-05-06 20:04 | 50.08342 | 13.23650 | 9772 ft | 183 kts | 64° |
| 2026-05-06 20:04 | 50.08936 | 13.25436 | 9771 ft | 188 kts | 64° |
| 2026-05-06 20:05 | 50.09543 | 13.27270 | 9776 ft | 191 kts | 65° |
| 2026-05-06 20:05 | 50.10153 | 13.29117 | 9779 ft | 193 kts | 64° |
| 2026-05-06 20:05 | 50.10769 | 13.30981 | 9780 ft | 193 kts | 64° |
| 2026-05-06 20:05 | 50.11391 | 13.32866 | 9778 ft | 202 kts | 64° |
| 2026-05-06 20:06 | 50.12046 | 13.34870 | 9780 ft | 212 kts | 65° |
| 2026-05-06 20:06 | 50.12719 | 13.36937 | 9779 ft | 215 kts | 65° |
| 2026-05-06 20:06 | 50.13402 | 13.39024 | 9781 ft | 213 kts | 65° |
| 2026-05-06 20:06 | 50.14068 | 13.41056 | 9776 ft | 212 kts | 64° |
| 2026-05-06 20:07 | 50.14746 | 13.43127 | 9780 ft | 216 kts | 64° |
| 2026-05-06 20:07 | 50.15433 | 13.45228 | 9776 ft | 218 kts | 65° |
| 2026-05-06 20:07 | 50.16122 | 13.47336 | 9780 ft | 218 kts | 65° |
| 2026-05-06 20:07 | 50.16812 | 13.49447 | 9778 ft | 219 kts | 65° |
| 2026-05-06 20:08 | 50.17501 | 13.51563 | 9782 ft | 219 kts | 65° |
| 2026-05-06 20:08 | 50.18192 | 13.53680 | 9777 ft | 219 kts | 65° |
| 2026-05-06 20:08 | 50.18882 | 13.55798 | 9776 ft | 219 kts | 65° |
| 2026-05-06 20:08 | 50.19653 | 13.57848 | 9671 ft | 221 kts | 49° |
| 2026-05-06 20:09 | 50.20822 | 13.59384 | 9406 ft | 220 kts | 36° |
| 2026-05-06 20:09 | 50.22056 | 13.60785 | 9142 ft | 219 kts | 35° |
| 2026-05-06 20:09 | 50.23291 | 13.62166 | 8876 ft | 218 kts | 35° |
| 2026-05-06 20:09 | 50.24520 | 13.63536 | 8565 ft | 214 kts | 35° |
| 2026-05-06 20:10 | 50.25703 | 13.64858 | 8251 ft | 210 kts | 35° |
| 2026-05-06 20:10 | 50.26885 | 13.66179 | 7937 ft | 208 kts | 35° |
| 2026-05-06 20:10 | 50.28055 | 13.67485 | 7620 ft | 206 kts | 35° |
| 2026-05-06 20:10 | 50.29219 | 13.68781 | 7307 ft | 204 kts | 35° |
| 2026-05-06 20:11 | 50.30370 | 13.70060 | 6999 ft | 202 kts | 34° |
| 2026-05-06 20:11 | 50.31455 | 13.71415 | 6768 ft | 196 kts | 51° |
| 2026-05-06 20:11 | 50.31995 | 13.73287 | 6768 ft | 186 kts | 74° |
| 2026-05-06 20:11 | 50.32372 | 13.75219 | 6766 ft | 185 kts | 75° |
| 2026-05-06 20:12 | 50.32737 | 13.77136 | 6759 ft | 184 kts | 75° |
| 2026-05-06 20:12 | 50.33101 | 13.79051 | 6767 ft | 184 kts | 75° |
| 2026-05-06 20:12 | 50.33463 | 13.80967 | 6768 ft | 183 kts | 75° |
| 2026-05-06 20:12 | 50.33826 | 13.82881 | 6771 ft | 184 kts | 75° |
| 2026-05-06 20:13 | 50.34191 | 13.84800 | 6768 ft | 183 kts | 75° |
| 2026-05-06 20:13 | 50.34444 | 13.86732 | 6767 ft | 180 kts | 96° |
| 2026-05-06 20:13 | 50.33931 | 13.88429 | 6769 ft | 173 kts | 140° |
| 2026-05-06 20:13 | 50.32932 | 13.89421 | 6783 ft | 170 kts | 154° |
| 2026-05-06 20:14 | 50.31902 | 13.90298 | 6784 ft | 171 kts | 155° |
| 2026-05-06 20:14 | 50.30853 | 13.91179 | 6785 ft | 171 kts | 155° |
| 2026-05-06 20:14 | 50.29796 | 13.92066 | 6691 ft | 177 kts | 155° |
| 2026-05-06 20:14 | 50.28671 | 13.93003 | 6291 ft | 188 kts | 155° |
| 2026-05-06 20:15 | 50.27510 | 13.93977 | 5851 ft | 190 kts | 154° |
| 2026-05-06 20:15 | 50.26341 | 13.94946 | 5399 ft | 190 kts | 155° |
| 2026-05-06 20:15 | 50.25177 | 13.95934 | 4953 ft | 192 kts | 150° |
| 2026-05-06 20:15 | 50.24081 | 13.97156 | 4504 ft | 195 kts | 139° |
| 2026-05-06 20:16 | 50.23197 | 13.98763 | 4048 ft | 195 kts | 128° |
| 2026-05-06 20:16 | 50.22396 | 14.00401 | 3777 ft | 187 kts | 126° |
| 2026-05-06 20:16 | 50.21637 | 14.02016 | 3765 ft | 178 kts | 126° |
| 2026-05-06 20:16 | 50.20895 | 14.03539 | 3768 ft | 174 kts | 126° |
| 2026-05-06 20:17 | 50.20177 | 14.05049 | 3766 ft | 174 kts | 126° |
| 2026-05-06 20:17 | 50.19453 | 14.06555 | 3768 ft | 174 kts | 126° |
| 2026-05-06 20:17 | 50.18729 | 14.08064 | 3745 ft | 174 kts | 126° |
| 2026-05-06 20:17 | 50.17984 | 14.09612 | 3546 ft | 181 kts | 126° |
| 2026-05-06 20:18 | 50.17218 | 14.11205 | 3305 ft | 184 kts | 125° |
| 2026-05-06 20:18 | 50.16451 | 14.12798 | 3067 ft | 183 kts | 125° |
| 2026-05-06 20:18 | 50.15682 | 14.14390 | 2825 ft | 183 kts | 124° |
| 2026-05-06 20:18 | 50.14938 | 14.15868 | 2497 ft | 153 kts | 126° |
| 2026-05-06 20:19 | 50.14329 | 14.17135 | 2330 ft | 152 kts | 123° |
| 2026-05-06 20:19 | 50.13683 | 14.18465 | 2129 ft | 140 kts | 125° |
| 2026-05-06 20:19 | 50.13126 | 14.19643 | 1872 ft | 127 kts | 123° |
| 2026-05-06 20:19 | 50.12643 | 14.20730 | 1759 ft | 112 kts | 125° |
| 2026-05-06 20:20 | 50.12346 | 14.21325 | 1701 ft | 100 kts | 127° |
| 2026-05-06 20:20 | 50.11941 | 14.22181 | 1577 ft | 99 kts | 125° |
| 2026-05-06 20:20 | 50.11511 | 14.23064 | 1436 ft | 100 kts | 125° |
| 2026-05-06 20:20 | 50.11102 | 14.23909 | 1308 ft | 99 kts | 127° |
| 2026-05-06 20:21 | 50.10699 | 14.24749 | 1177 ft | 94 kts | 127° |
| 2026-05-06 20:21 | 50.10342 | 14.25468 | 1177 ft | 70 kts | 125° |
| 2026-05-06 20:21 | 50.10140 | 14.25908 | 1182 ft | 49 kts | 126° |
| 2026-05-06 20:21 | 50.09920 | 14.26364 | 1192 ft | 43 kts | 131° |
| 2026-05-06 20:22 | 50.09866 | 14.26525 | 1200 ft | 21 kts | 87° |
| 2026-05-06 20:22 | 50.09888 | 14.26752 | 1204 ft | 23 kts | 81° |
| 2026-05-06 20:22 | 50.09892 | 14.26799 | 1205 ft | 1 kts | 82° |
| 2026-05-06 20:22 | 50.09899 | 14.26875 | 1207 ft | 15 kts | 82° |
| 2026-05-06 20:23 | 50.09916 | 14.27022 | 1209 ft | 14 kts | 83° |
| 2026-05-06 20:23 | 50.09938 | 14.27127 | 1207 ft | 10 kts | 357° |
| 2026-05-06 20:23 | 50.10015 | 14.26984 | 1205 ft | 26 kts | 303° |
| 2026-05-06 20:23 | 50.10146 | 14.26716 | 1201 ft | 31 kts | 308° |
| 2026-05-06 20:24 | 50.10255 | 14.26487 | 1193 ft | 34 kts | 307° |
| 2026-05-06 20:24 | 50.10373 | 14.26245 | 1190 ft | 19 kts | 308° |
| 2026-05-06 20:24 | 50.10452 | 14.26080 | 1188 ft | 21 kts | 307° |
| 2026-05-06 20:24 | 50.10485 | 14.26016 | 1186 ft | 0 kts | 312° |
| 2026-05-06 20:25 | 50.10523 | 14.25938 | 1184 ft | 19 kts | 302° |
| 2026-05-06 20:25 | 50.10578 | 14.25798 | 1178 ft | 13 kts | 310° |
| 2026-05-06 20:25 | 50.10634 | 14.25820 | 1175 ft | 16 kts | 36° |
| 2026-05-06 20:25 | 50.10757 | 14.25952 | 1171 ft | 20 kts | 34° |
| 2026-05-06 20:26 | 50.10810 | 14.26008 | 1169 ft | 9 kts | 34° |
| 2026-05-06 20:26 | 50.10837 | 14.26038 | 1168 ft | 3 kts | 25° |
| 2026-05-06 20:26 | 50.10855 | 14.26017 | 1170 ft | 8 kts | 303° |
| 2026-05-06 20:26 | 50.10882 | 14.25956 | 1169 ft | 0 kts | 303° |